createdAt,value
2023-03-30T00:00:18.325Z,18.32
2023-03-30T00:02:50.844Z,18.32
2023-03-30T00:05:18.651Z,18.32
2023-03-30T00:07:45.764Z,18.32
2023-03-30T00:10:14.686Z,18.31
2023-03-30T00:12:43.531Z,18.31
2023-03-30T00:15:12.375Z,18.32
2023-03-30T00:17:39.589Z,18.31
2023-03-30T00:20:12.073Z,18.31
2023-03-30T00:22:40.184Z,18.30
2023-03-30T00:25:12.365Z,18.29
2023-03-30T00:27:40.580Z,18.29
2023-03-30T00:30:10.347Z,18.29
2023-03-30T00:32:37.028Z,18.30
2023-03-30T00:35:05.279Z,18.29
2023-03-30T00:37:32.405Z,18.29
2023-03-30T00:39:58.946Z,18.28
2023-03-30T00:42:25.564Z,18.29
2023-03-30T00:45:23.082Z,18.28
2023-03-30T00:48:12.587Z,18.29
2023-03-30T00:50:52.752Z,18.25
2023-03-30T00:53:25.392Z,18.25
2023-03-30T00:55:53.974Z,18.25
2023-03-30T00:58:22.385Z,18.24
2023-03-30T01:00:48.956Z,18.23
2023-03-30T01:03:35.129Z,18.22
2023-03-30T01:06:05.399Z,18.21
2023-03-30T01:08:32.638Z,18.21
2023-03-30T01:11:03.939Z,18.20
2023-03-30T01:13:34.952Z,18.20
2023-03-30T01:16:15.340Z,18.20
2023-03-30T01:18:54.687Z,18.18
2023-03-30T01:21:46.213Z,18.16
2023-03-30T01:24:18.373Z,18.19
2023-03-30T01:26:56.423Z,18.17
2023-03-30T01:30:02.048Z,18.16
2023-03-30T01:32:49.955Z,18.17
2023-03-30T01:35:37.129Z,18.15
2023-03-30T01:38:09.580Z,18.16
2023-03-30T01:40:40.295Z,18.15
2023-03-30T01:43:19.383Z,18.15
2023-03-30T01:46:04.891Z,18.15
2023-03-30T01:48:45.774Z,18.15
2023-03-30T01:51:27.050Z,18.15
2023-03-30T01:54:00.766Z,18.16
2023-03-30T01:56:33.314Z,18.14
2023-03-30T01:59:24.563Z,18.16
2023-03-30T02:01:54.216Z,18.16
2023-03-30T02:04:23.739Z,18.15
2023-03-30T02:06:59.589Z,18.14
2023-03-30T02:09:27.858Z,18.15
2023-03-30T02:11:55.470Z,18.14
2023-03-30T02:14:28.876Z,18.11
2023-03-30T02:17:28.673Z,18.11
2023-03-30T02:19:58.022Z,18.12
2023-03-30T02:22:26.774Z,18.12
2023-03-30T02:24:55.991Z,18.09
2023-03-30T02:27:23.335Z,18.10
2023-03-30T02:29:50.049Z,18.11
2023-03-30T02:32:22.880Z,18.08
2023-03-30T02:34:58.423Z,18.09
2023-03-30T02:37:40.759Z,18.08
2023-03-30T02:40:43.419Z,18.08
2023-03-30T02:43:37.823Z,18.07
2023-03-30T02:46:04.264Z,18.07
2023-03-30T02:48:43.508Z,18.06
2023-03-30T02:51:43.719Z,18.06
2023-03-30T02:54:17.860Z,18.06
2023-03-30T02:56:58.899Z,18.06
2023-03-30T02:59:35.978Z,18.06
2023-03-30T03:02:14.134Z,18.06
2023-03-30T03:04:43.577Z,18.08
2023-03-30T03:07:14.321Z,18.07
2023-03-30T03:09:41.189Z,18.07
2023-03-30T03:12:07.919Z,18.08
2023-03-30T03:14:34.415Z,18.06
2023-03-30T03:17:00.994Z,18.06
2023-03-30T03:19:27.549Z,18.06
2023-03-30T03:21:54.115Z,18.04
2023-03-30T03:24:20.751Z,18.05
2023-03-30T03:26:47.610Z,18.04
2023-03-30T03:29:14.445Z,18.05
2023-03-30T03:31:41.476Z,18.03
2023-03-30T03:34:08.063Z,18.03
2023-03-30T03:36:34.715Z,18.04
2023-03-30T03:39:01.269Z,18.03
2023-03-30T03:41:27.868Z,18.03
2023-03-30T03:43:54.365Z,18.03
2023-03-30T03:46:20.979Z,18.02
2023-03-30T03:48:47.558Z,18.02
2023-03-30T03:51:14.448Z,18.03
2023-03-30T03:53:41.004Z,18.03
2023-03-30T03:56:08.144Z,18.03
2023-03-30T03:58:35.315Z,18.03
2023-03-30T04:01:03.266Z,18.03
2023-03-30T04:03:30.576Z,18.02
2023-03-30T04:06:01.272Z,18.00
2023-03-30T04:08:28.851Z,18.01
2023-03-30T04:10:55.656Z,18.01
2023-03-30T04:13:22.195Z,18.01
2023-03-30T04:15:48.790Z,18.01
2023-03-30T04:18:15.512Z,18.01
2023-03-30T04:20:42.095Z,18.02
2023-03-30T04:23:09.784Z,18.02
2023-03-30T04:25:36.392Z,18.02
2023-03-30T04:28:04.990Z,18.02
2023-03-30T04:30:31.653Z,18.02
2023-03-30T04:33:04.727Z,18.01
2023-03-30T04:35:34.546Z,18.01
2023-03-30T04:38:02.164Z,17.99
2023-03-30T04:40:29.015Z,17.98
2023-03-30T04:43:02.108Z,17.97
2023-03-30T04:45:30.286Z,17.96
2023-03-30T04:47:56.903Z,17.93
2023-03-30T04:50:23.615Z,17.93
2023-03-30T04:52:50.362Z,17.92
2023-03-30T04:55:17.109Z,17.90
2023-03-30T04:57:43.607Z,17.88
2023-03-30T05:00:10.648Z,17.87
2023-03-30T05:02:37.264Z,17.86
2023-03-30T05:05:04.353Z,17.86
2023-03-30T05:07:30.989Z,17.84
2023-03-30T05:09:57.523Z,17.82
2023-03-30T05:12:24.164Z,17.82
2023-03-30T05:14:50.738Z,17.80
2023-03-30T05:17:17.353Z,17.79
2023-03-30T05:19:43.956Z,17.78
2023-03-30T05:22:10.592Z,17.77
2023-03-30T05:24:37.091Z,17.76
2023-03-30T05:27:05.013Z,17.75
2023-03-30T05:29:31.912Z,17.73
2023-03-30T05:31:58.514Z,17.73
2023-03-30T05:34:25.070Z,17.72
2023-03-30T05:36:51.566Z,17.71
2023-03-30T05:39:18.120Z,17.70
2023-03-30T05:41:44.612Z,17.71
2023-03-30T05:44:11.248Z,17.71
2023-03-30T05:46:37.805Z,17.69
2023-03-30T05:49:04.411Z,17.71
2023-03-30T05:51:31.117Z,17.70
2023-03-30T05:53:58.271Z,17.72
2023-03-30T05:56:25.197Z,17.76
2023-03-30T05:58:51.848Z,17.80
2023-03-30T06:01:20.826Z,17.81
2023-03-30T06:03:48.010Z,17.84
2023-03-30T06:06:14.697Z,17.86
2023-03-30T06:08:43.077Z,17.89
2023-03-30T06:11:09.606Z,17.90
2023-03-30T06:13:36.279Z,17.92
2023-03-30T06:16:03.802Z,17.94
2023-03-30T06:18:30.765Z,17.99
2023-03-30T06:20:57.459Z,18.01
2023-03-30T06:23:24.040Z,18.03
2023-03-30T06:25:53.173Z,18.05
2023-03-30T06:28:20.817Z,18.06
2023-03-30T06:30:49.333Z,18.07
2023-03-30T06:33:17.641Z,18.07
2023-03-30T06:35:52.577Z,18.08
2023-03-30T06:38:20.633Z,18.08
2023-03-30T06:40:47.836Z,18.09
2023-03-30T06:43:22.956Z,18.09
2023-03-30T06:45:51.257Z,18.10
2023-03-30T06:48:19.757Z,18.09
2023-03-30T06:50:49.348Z,18.08
2023-03-30T06:53:16.110Z,18.06
2023-03-30T06:55:43.377Z,18.05
2023-03-30T06:58:10.518Z,18.03
2023-03-30T07:00:37.339Z,18.02
2023-03-30T07:03:04.219Z,18.01
2023-03-30T07:05:31.222Z,18.00
2023-03-30T07:07:58.297Z,18.01
2023-03-30T07:10:24.852Z,18.02
2023-03-30T07:12:51.510Z,18.00
2023-03-30T07:15:18.274Z,18.03
2023-03-30T07:17:45.086Z,18.05
2023-03-30T07:20:15.589Z,18.06
2023-03-30T07:22:42.572Z,18.08
2023-03-30T07:25:10.078Z,18.11
2023-03-30T07:27:38.072Z,18.13
2023-03-30T07:30:20.512Z,18.15
2023-03-30T07:32:50.478Z,18.17
2023-03-30T07:35:17.368Z,18.20
2023-03-30T07:37:43.925Z,18.22
2023-03-30T07:40:11.808Z,18.24
2023-03-30T07:42:38.507Z,18.27
2023-03-30T07:45:05.688Z,18.29
2023-03-30T07:47:32.294Z,18.30
2023-03-30T07:49:58.939Z,18.32
2023-03-30T07:52:25.900Z,18.34
2023-03-30T07:54:54.593Z,18.35
2023-03-30T07:57:22.624Z,18.36
2023-03-30T07:59:49.369Z,18.38
2023-03-30T08:02:16.055Z,18.41
2023-03-30T08:04:43.977Z,18.42
2023-03-30T08:07:11.660Z,18.44
2023-03-30T08:09:38.456Z,18.45
2023-03-30T08:12:06.059Z,18.46
2023-03-30T08:14:32.686Z,18.47
2023-03-30T08:16:59.273Z,18.48
2023-03-30T08:19:27.105Z,18.51
2023-03-30T08:21:53.659Z,18.52
2023-03-30T08:24:20.413Z,18.53
2023-03-30T08:26:47.161Z,18.53
2023-03-30T08:29:13.656Z,18.54
2023-03-30T08:31:40.280Z,18.56
2023-03-30T08:34:08.000Z,18.56
2023-03-30T08:36:34.875Z,18.57
2023-03-30T08:39:01.432Z,18.58
2023-03-30T08:41:27.965Z,18.60
2023-03-30T08:44:06.738Z,18.61
2023-03-30T08:46:33.952Z,18.61
2023-03-30T08:49:07.852Z,18.64
2023-03-30T08:51:35.941Z,18.65
2023-03-30T08:54:07.069Z,18.67
2023-03-30T08:56:44.235Z,18.69
2023-03-30T08:59:29.140Z,18.70
2023-03-30T09:02:02.310Z,18.73
2023-03-30T09:04:38.116Z,18.76
2023-03-30T09:07:14.386Z,18.78
2023-03-30T09:09:45.533Z,18.81
2023-03-30T09:12:47.670Z,18.85
2023-03-30T09:15:25.914Z,18.88
2023-03-30T09:18:12.634Z,18.92
2023-03-30T09:20:43.646Z,18.97
2023-03-30T09:23:17.726Z,18.98
2023-03-30T09:25:54.309Z,18.99
2023-03-30T09:28:59.423Z,19.04
2023-03-30T09:31:34.900Z,19.07
2023-03-30T09:34:27.457Z,19.06
2023-03-30T09:36:57.295Z,19.11
2023-03-30T09:39:31.023Z,19.10
2023-03-30T09:42:19.582Z,19.11
2023-03-30T09:45:00.000Z,19.14
2023-03-30T09:47:28.369Z,19.18
2023-03-30T09:49:59.766Z,19.22
2023-03-30T09:52:29.495Z,19.25
2023-03-30T09:54:57.267Z,19.30
2023-03-30T09:57:33.008Z,19.33
2023-03-30T10:00:01.302Z,19.40
2023-03-30T10:02:31.380Z,19.44
2023-03-30T10:05:03.678Z,19.47
2023-03-30T10:07:40.599Z,19.51
2023-03-30T10:10:32.604Z,19.53
2023-03-30T10:13:14.375Z,19.56
2023-03-30T10:15:47.108Z,19.59
2023-03-30T10:18:27.808Z,19.58
2023-03-30T10:21:05.032Z,19.61
2023-03-30T10:23:34.407Z,19.63
2023-03-30T10:26:04.126Z,19.66
2023-03-30T10:28:33.959Z,19.69
2023-03-30T10:31:05.426Z,19.69
2023-03-30T10:33:39.477Z,19.70
2023-03-30T10:36:07.648Z,19.73
2023-03-30T10:38:34.998Z,19.74
2023-03-30T10:41:08.448Z,19.75
2023-03-30T10:43:36.780Z,19.75
2023-03-30T10:46:19.382Z,19.73
2023-03-30T10:49:02.757Z,19.75
2023-03-30T10:51:47.884Z,19.75
2023-03-30T10:54:32.754Z,19.75
2023-03-30T10:57:18.783Z,19.79
2023-03-30T11:00:00.194Z,19.82
2023-03-30T11:02:39.105Z,19.86
2023-03-30T11:05:16.880Z,19.87
2023-03-30T11:07:56.773Z,19.93
2023-03-30T11:10:32.932Z,19.96
2023-03-30T11:13:04.554Z,19.96
2023-03-30T11:15:42.950Z,19.95
2023-03-30T11:18:12.462Z,19.95
2023-03-30T11:20:55.518Z,19.94
2023-03-30T11:23:33.419Z,19.95
2023-03-30T11:26:08.666Z,19.96
2023-03-30T11:29:07.020Z,19.94
2023-03-30T11:31:53.865Z,19.94
2023-03-30T11:34:34.696Z,19.93
2023-03-30T11:37:12.656Z,19.93
2023-03-30T11:39:45.444Z,19.93
2023-03-30T11:42:27.099Z,19.92
2023-03-30T11:44:53.842Z,19.91
2023-03-30T11:47:32.286Z,19.91
2023-03-30T11:50:13.735Z,19.91
2023-03-30T11:53:02.234Z,19.91
2023-03-30T11:55:46.444Z,19.90
2023-03-30T11:58:35.640Z,19.92
2023-03-30T12:01:10.674Z,19.90
2023-03-30T12:03:44.198Z,19.92
2023-03-30T12:06:17.038Z,19.92
2023-03-30T12:09:06.174Z,19.96
2023-03-30T12:11:52.422Z,19.97
2023-03-30T12:14:21.716Z,19.95
2023-03-30T12:16:52.457Z,19.95
2023-03-30T12:19:26.458Z,19.97
2023-03-30T12:22:00.137Z,19.96
2023-03-30T12:24:49.692Z,19.96
2023-03-30T12:27:16.259Z,20.01
2023-03-30T12:30:02.491Z,20.01
2023-03-30T12:32:30.894Z,20.01
2023-03-30T12:34:58.442Z,20.01
2023-03-30T12:37:37.584Z,20.01
2023-03-30T12:40:08.763Z,20.02
2023-03-30T12:42:46.353Z,20.03
2023-03-30T12:45:16.507Z,20.02
2023-03-30T12:48:14.561Z,20.01
2023-03-30T12:51:18.404Z,19.99
2023-03-30T12:54:10.945Z,19.97
2023-03-30T12:56:49.525Z,19.97
2023-03-30T12:59:51.055Z,19.96
2023-03-30T13:02:47.264Z,19.94
2023-03-30T13:05:24.505Z,19.93
2023-03-30T13:07:54.825Z,19.92
2023-03-30T13:10:30.096Z,19.90
2023-03-30T13:12:58.472Z,19.90
2023-03-30T13:15:46.940Z,19.90
2023-03-30T13:18:13.535Z,19.93
2023-03-30T13:20:46.138Z,19.96
2023-03-30T13:23:12.643Z,19.99
2023-03-30T13:25:45.230Z,20.02
2023-03-30T13:28:49.387Z,20.02
2023-03-30T13:31:34.594Z,20.06
2023-03-30T13:34:20.007Z,20.08
2023-03-30T13:37:17.295Z,20.10
2023-03-30T13:40:24.335Z,20.12
2023-03-30T13:43:18.061Z,20.14
2023-03-30T13:46:16.360Z,20.15
2023-03-30T13:49:23.336Z,20.16
2023-03-30T13:51:49.959Z,20.18
2023-03-30T13:54:28.246Z,20.17
2023-03-30T13:57:04.224Z,20.17
2023-03-30T13:59:35.019Z,20.17
2023-03-30T14:02:02.265Z,20.15
2023-03-30T14:04:34.423Z,20.15
2023-03-30T14:07:13.933Z,20.15
2023-03-30T14:09:40.587Z,20.14
2023-03-30T14:12:07.723Z,20.15
2023-03-30T14:14:38.520Z,20.13
2023-03-30T14:17:22.020Z,20.12
2023-03-30T14:20:09.378Z,20.10
2023-03-30T14:22:41.027Z,20.10
2023-03-30T14:25:39.176Z,20.08
2023-03-30T14:28:20.025Z,20.06
2023-03-30T14:30:51.845Z,20.05
2023-03-30T14:33:18.839Z,20.04
2023-03-30T14:35:58.389Z,20.01
2023-03-30T14:38:30.058Z,20.02
2023-03-30T14:40:56.868Z,20.01
2023-03-30T14:43:27.235Z,19.99
2023-03-30T14:45:56.653Z,20.00
2023-03-30T14:48:28.702Z,19.98
2023-03-30T14:50:55.593Z,19.97
2023-03-30T14:53:27.633Z,19.95
2023-03-30T14:55:57.324Z,19.94
2023-03-30T14:58:30.083Z,19.92
2023-03-30T15:00:59.454Z,19.92
2023-03-30T15:03:34.337Z,19.91
2023-03-30T15:06:03.100Z,19.92
2023-03-30T15:08:36.789Z,19.93
2023-03-30T15:11:23.382Z,19.92
2023-03-30T15:13:53.727Z,19.95
2023-03-30T15:16:29.886Z,19.92
2023-03-30T15:19:04.314Z,19.94
2023-03-30T15:21:34.108Z,19.97
2023-03-30T15:24:01.391Z,20.02
2023-03-30T15:26:28.642Z,20.07
2023-03-30T15:28:59.083Z,20.11
2023-03-30T15:31:28.993Z,20.18
2023-03-30T15:33:57.936Z,20.27
2023-03-30T15:36:33.594Z,20.35
2023-03-30T15:39:00.301Z,20.44
2023-03-30T15:41:47.652Z,20.52
2023-03-30T15:44:21.621Z,20.61
2023-03-30T15:46:55.100Z,20.69
2023-03-30T15:49:25.674Z,20.75
2023-03-30T15:51:55.479Z,20.85
2023-03-30T15:54:40.250Z,20.90
2023-03-30T15:57:18.496Z,20.94
2023-03-30T15:59:57.122Z,20.94
2023-03-30T16:02:37.824Z,20.94
2023-03-30T16:05:08.672Z,20.94
2023-03-30T16:07:36.241Z,20.92
2023-03-30T16:10:02.997Z,20.91
2023-03-30T16:12:31.378Z,20.88
2023-03-30T16:14:58.332Z,20.87
2023-03-30T16:17:25.659Z,20.84
2023-03-30T16:19:52.313Z,20.82
2023-03-30T16:22:18.851Z,20.81
2023-03-30T16:24:46.190Z,20.80
2023-03-30T16:27:13.128Z,20.79
2023-03-30T16:29:39.711Z,20.78
2023-03-30T16:32:06.438Z,20.77
2023-03-30T16:34:33.020Z,20.77
2023-03-30T16:36:59.631Z,20.76
2023-03-30T16:39:28.839Z,20.75
2023-03-30T16:41:56.004Z,20.76
2023-03-30T16:44:24.202Z,20.75
2023-03-30T16:46:51.558Z,20.74
2023-03-30T16:49:24.387Z,20.75
2023-03-30T16:51:54.469Z,20.75
2023-03-30T16:54:31.091Z,20.77
2023-03-30T16:57:00.001Z,20.78
2023-03-30T16:59:30.119Z,20.81
2023-03-30T17:01:57.139Z,20.83
2023-03-30T17:04:23.695Z,20.85
2023-03-30T17:06:50.505Z,20.87
2023-03-30T17:09:19.370Z,20.90
2023-03-30T17:11:47.758Z,20.92
2023-03-30T17:14:15.373Z,20.98
2023-03-30T17:16:43.440Z,21.03
2023-03-30T17:19:12.726Z,21.10
2023-03-30T17:21:40.405Z,21.17
2023-03-30T17:24:07.246Z,21.27
2023-03-30T17:26:33.800Z,21.34
2023-03-30T17:29:00.615Z,21.42
2023-03-30T17:31:27.312Z,21.50
2023-03-30T17:33:54.578Z,21.56
2023-03-30T17:36:23.448Z,21.62
2023-03-30T17:38:51.287Z,21.68
2023-03-30T17:41:19.649Z,21.73
2023-03-30T17:43:47.881Z,21.76
2023-03-30T17:46:17.091Z,21.77
2023-03-30T17:48:43.705Z,21.77
2023-03-30T17:51:10.371Z,21.75
2023-03-30T17:53:37.529Z,21.72
2023-03-30T17:56:04.254Z,21.68
2023-03-30T17:58:36.038Z,21.65
2023-03-30T18:01:06.228Z,21.62
2023-03-30T18:03:33.502Z,21.59
2023-03-30T18:06:02.038Z,21.54
2023-03-30T18:08:29.465Z,21.51
2023-03-30T18:11:00.892Z,21.46
2023-03-30T18:13:29.648Z,21.42
2023-03-30T18:15:58.397Z,21.40
2023-03-30T18:18:27.406Z,21.37
2023-03-30T18:20:56.321Z,21.35
2023-03-30T18:23:23.563Z,21.32
2023-03-30T18:25:50.639Z,21.31
2023-03-30T18:28:19.858Z,21.30
2023-03-30T18:30:47.039Z,21.28
2023-03-30T18:33:16.633Z,21.27
2023-03-30T18:35:45.374Z,21.25
2023-03-30T18:38:13.418Z,21.24
2023-03-30T18:40:43.983Z,21.20
2023-03-30T18:43:11.060Z,21.18
2023-03-30T18:45:40.292Z,21.18
2023-03-30T18:48:08.853Z,21.16
2023-03-30T18:50:39.335Z,21.15
2023-03-30T18:53:08.734Z,21.16
2023-03-30T18:55:37.670Z,21.14
2023-03-30T18:58:14.639Z,21.13
2023-03-30T19:00:41.341Z,21.11
2023-03-30T19:03:08.180Z,21.10
2023-03-30T19:05:35.649Z,21.08
2023-03-30T19:08:02.222Z,21.09
2023-03-30T19:10:31.625Z,21.05
2023-03-30T19:12:59.046Z,21.03
2023-03-30T19:15:31.765Z,21.00
2023-03-30T19:17:58.452Z,20.95
2023-03-30T19:20:27.132Z,20.91
2023-03-30T19:22:53.802Z,20.87
2023-03-30T19:25:22.488Z,20.82
2023-03-30T19:28:02.053Z,20.78
2023-03-30T19:30:36.123Z,20.73
2023-03-30T19:33:09.643Z,20.68
2023-03-30T19:35:36.453Z,20.65
2023-03-30T19:38:03.702Z,20.62
2023-03-30T19:40:30.273Z,20.59
2023-03-30T19:42:56.891Z,20.55
2023-03-30T19:45:23.836Z,20.53
2023-03-30T19:47:51.490Z,20.51
2023-03-30T19:50:20.579Z,20.50
2023-03-30T19:52:49.991Z,20.47
2023-03-30T19:55:18.097Z,20.46
2023-03-30T19:57:44.652Z,20.45
2023-03-30T20:00:15.387Z,20.43
2023-03-30T20:02:45.752Z,20.42
2023-03-30T20:05:13.274Z,20.41
2023-03-30T20:07:40.724Z,20.39
2023-03-30T20:10:10.722Z,20.35
2023-03-30T20:12:37.687Z,20.32
2023-03-30T20:15:06.335Z,20.29
2023-03-30T20:17:34.219Z,20.28
2023-03-30T20:20:06.740Z,20.23
2023-03-30T20:22:35.476Z,20.20
2023-03-30T20:25:02.885Z,20.16
2023-03-30T20:27:29.405Z,20.15
2023-03-30T20:29:55.993Z,20.11
2023-03-30T20:32:25.747Z,20.10
2023-03-30T20:34:52.701Z,20.07
2023-03-30T20:37:19.399Z,20.04
2023-03-30T20:39:45.942Z,20.01
2023-03-30T20:42:12.478Z,19.98
2023-03-30T20:44:41.147Z,19.95
2023-03-30T20:47:08.868Z,19.90
2023-03-30T20:49:37.631Z,19.88
2023-03-30T20:52:04.582Z,19.84
2023-03-30T20:54:31.490Z,19.81
2023-03-30T20:56:58.148Z,19.79
2023-03-30T20:59:24.681Z,19.77
2023-03-30T21:01:52.059Z,19.72
2023-03-30T21:04:19.555Z,19.68
2023-03-30T21:06:46.827Z,19.66
2023-03-30T21:09:13.689Z,19.63
2023-03-30T21:11:40.444Z,19.61
2023-03-30T21:14:08.592Z,19.55
2023-03-30T21:16:36.776Z,19.51
2023-03-30T21:19:04.678Z,19.45
2023-03-30T21:21:33.763Z,19.41
2023-03-30T21:24:01.659Z,19.37
2023-03-30T21:26:29.292Z,19.33
2023-03-30T21:28:56.272Z,19.30
2023-03-30T21:31:23.307Z,19.27
2023-03-30T21:33:50.071Z,19.23
2023-03-30T21:36:16.793Z,19.21
2023-03-30T21:38:43.441Z,19.19
2023-03-30T21:41:21.095Z,19.16
2023-03-30T21:43:48.181Z,19.13
2023-03-30T21:46:17.478Z,19.10
2023-03-30T21:48:45.871Z,19.10
2023-03-30T21:51:35.336Z,19.05
2023-03-30T21:54:01.938Z,19.03
2023-03-30T21:56:30.310Z,19.01
2023-03-30T21:58:57.764Z,19.00
2023-03-30T22:01:24.534Z,18.99
2023-03-30T22:03:52.247Z,18.96
2023-03-30T22:06:19.526Z,18.93
2023-03-30T22:08:46.505Z,18.90
2023-03-30T22:11:20.273Z,18.89
2023-03-30T22:13:48.465Z,18.87
2023-03-30T22:16:28.352Z,18.87
2023-03-30T22:18:55.660Z,18.85
2023-03-30T22:21:24.526Z,18.84
2023-03-30T22:23:52.597Z,18.81
2023-03-30T22:26:19.125Z,18.81
2023-03-30T22:28:45.680Z,18.80
2023-03-30T22:31:14.853Z,18.78
2023-03-30T22:33:41.712Z,18.77
2023-03-30T22:36:20.704Z,18.75
2023-03-30T22:38:48.878Z,18.73
2023-03-30T22:41:15.874Z,18.72
2023-03-30T22:43:42.532Z,18.70
2023-03-30T22:46:09.230Z,18.70
2023-03-30T22:48:36.452Z,18.69
2023-03-30T22:51:04.126Z,18.66
2023-03-30T22:53:31.797Z,18.66
2023-03-30T22:55:58.371Z,18.63
2023-03-30T22:58:24.940Z,18.62
2023-03-30T23:00:51.873Z,18.62
2023-03-30T23:03:22.625Z,18.60
2023-03-30T23:05:52.591Z,18.58
2023-03-30T23:08:19.382Z,18.58
2023-03-30T23:10:45.905Z,18.57
2023-03-30T23:13:13.800Z,18.56
2023-03-30T23:15:40.511Z,18.56
2023-03-30T23:18:07.192Z,18.55
2023-03-30T23:20:33.719Z,18.55
2023-03-30T23:23:00.215Z,18.54
2023-03-30T23:25:27.271Z,18.55
2023-03-30T23:27:53.816Z,18.54
2023-03-30T23:30:20.329Z,18.53
2023-03-30T23:32:46.916Z,18.53
2023-03-30T23:35:13.464Z,18.53
2023-03-30T23:37:40.216Z,18.52
2023-03-30T23:40:07.967Z,18.52
2023-03-30T23:42:34.562Z,18.52
2023-03-30T23:45:01.230Z,18.53
2023-03-30T23:47:27.873Z,18.51
2023-03-30T23:49:54.417Z,18.52
2023-03-30T23:52:21.099Z,18.50
2023-03-30T23:54:52.157Z,18.49
2023-03-30T23:57:19.992Z,18.50
2023-03-30T23:59:46.746Z,18.49
